sensor_id;sensor_type;location;lat;lon;timestamp;pressure;altitude;pressure_sealevel;temperature;humidity
19624;BME280;9959;49.798;9.928;2023-05-02T00:00:54;99651.63;;;8.62;96.90
19624;BME280;9959;49.798;9.928;2023-05-02T00:03:21;99651.00;;;8.60;96.67
19624;BME280;9959;49.798;9.928;2023-05-02T00:05:49;99654.75;;;8.65;96.22
19624;BME280;9959;49.798;9.928;2023-05-02T00:08:16;99663.34;;;8.47;97.14
19624;BME280;9959;49.798;9.928;2023-05-02T00:10:42;99660.03;;;8.45;97.49
19624;BME280;9959;49.798;9.928;2023-05-02T00:13:09;99652.94;;;8.72;96.28
19624;BME280;9959;49.798;9.928;2023-05-02T00:15:36;99651.25;;;8.65;96.42
19624;BME280;9959;49.798;9.928;2023-05-02T00:18:03;99648.72;;;8.57;96.38
19624;BME280;9959;49.798;9.928;2023-05-02T00:20:30;99646.91;;;8.64;96.26
19624;BME280;9959;49.798;9.928;2023-05-02T00:22:57;99650.59;;;8.63;96.21
19624;BME280;9959;49.798;9.928;2023-05-02T00:25:23;99653.72;;;8.66;95.53
19624;BME280;9959;49.798;9.928;2023-05-02T00:27:50;99658.75;;;8.41;96.88
19624;BME280;9959;49.798;9.928;2023-05-02T00:30:18;99651.88;;;8.32;98.03
19624;BME280;9959;49.798;9.928;2023-05-02T00:32:46;99650.84;;;8.33;98.27
19624;BME280;9959;49.798;9.928;2023-05-02T00:35:13;99654.09;;;8.29;98.49
19624;BME280;9959;49.798;9.928;2023-05-02T00:37:40;99645.78;;;8.17;99.28
19624;BME280;9959;49.798;9.928;2023-05-02T00:40:07;99651.53;;;8.14;99.03
19624;BME280;9959;49.798;9.928;2023-05-02T00:42:34;99645.28;;;8.07;99.30
19624;BME280;9959;49.798;9.928;2023-05-02T00:45:05;99653.19;;;8.15;98.69
19624;BME280;9959;49.798;9.928;2023-05-02T00:47:32;99653.19;;;8.15;99.15
19624;BME280;9959;49.798;9.928;2023-05-02T00:50:00;99656.41;;;8.04;99.89
19624;BME280;9959;49.798;9.928;2023-05-02T00:52:27;99654.28;;;7.93;100.00
19624;BME280;9959;49.798;9.928;2023-05-02T00:54:54;99649.38;;;8.03;100.00
19624;BME280;9959;49.798;9.928;2023-05-02T00:57:22;99651.38;;;7.94;100.00
19624;BME280;9959;49.798;9.928;2023-05-02T00:59:49;99655.50;;;7.90;100.00
19624;BME280;9959;49.798;9.928;2023-05-02T01:02:47;99646.06;;;8.01;100.00
19624;BME280;9959;49.798;9.928;2023-05-02T01:05:20;99654.47;;;8.26;99.33
19624;BME280;9959;49.798;9.928;2023-05-02T01:08:09;99649.69;;;8.21;99.16
19624;BME280;9959;49.798;9.928;2023-05-02T01:13:23;99657.34;;;8.18;100.00
19624;BME280;9959;49.798;9.928;2023-05-02T01:15:52;99669.72;;;8.19;100.00
19624;BME280;9959;49.798;9.928;2023-05-02T01:18:23;99665.09;;;8.06;100.00
19624;BME280;9959;49.798;9.928;2023-05-02T01:20:56;99672.88;;;8.01;100.00
19624;BME280;9959;49.798;9.928;2023-05-02T01:23:55;99668.78;;;8.05;100.00
19624;BME280;9959;49.798;9.928;2023-05-02T01:29:29;99668.41;;;8.08;100.00
19624;BME280;9959;49.798;9.928;2023-05-02T01:31:57;99665.41;;;8.24;100.00
19624;BME280;9959;49.798;9.928;2023-05-02T01:34:27;99666.84;;;8.20;100.00
19624;BME280;9959;49.798;9.928;2023-05-02T01:36:56;99665.31;;;8.32;100.00
19624;BME280;9959;49.798;9.928;2023-05-02T01:39:25;99664.81;;;8.29;100.00
19624;BME280;9959;49.798;9.928;2023-05-02T01:41:54;99669.31;;;8.22;100.00
19624;BME280;9959;49.798;9.928;2023-05-02T01:44:23;99670.16;;;8.22;100.00
19624;BME280;9959;49.798;9.928;2023-05-02T01:46:51;99675.50;;;8.22;100.00
19624;BME280;9959;49.798;9.928;2023-05-02T01:49:21;99677.16;;;8.23;100.00
19624;BME280;9959;49.798;9.928;2023-05-02T01:51:49;99686.78;;;8.32;100.00
19624;BME280;9959;49.798;9.928;2023-05-02T01:54:17;99690.34;;;8.39;100.00
19624;BME280;9959;49.798;9.928;2023-05-02T01:56:46;99699.41;;;8.38;100.00
19624;BME280;9959;49.798;9.928;2023-05-02T01:59:16;99691.75;;;8.35;100.00
19624;BME280;9959;49.798;9.928;2023-05-02T02:01:44;99686.63;;;8.40;99.85
19624;BME280;9959;49.798;9.928;2023-05-02T02:04:14;99696.72;;;8.38;99.78
19624;BME280;9959;49.798;9.928;2023-05-02T02:06:47;99703.38;;;8.42;99.68
19624;BME280;9959;49.798;9.928;2023-05-02T02:09:14;99704.53;;;8.33;100.00
19624;BME280;9959;49.798;9.928;2023-05-02T02:12:02;99701.28;;;8.38;99.91
19624;BME280;9959;49.798;9.928;2023-05-02T02:14:41;99700.19;;;8.32;100.00
19624;BME280;9959;49.798;9.928;2023-05-02T02:17:15;99707.03;;;8.35;100.00
19624;BME280;9959;49.798;9.928;2023-05-02T02:19:49;99708.34;;;8.45;99.81
19624;BME280;9959;49.798;9.928;2023-05-02T02:22:19;99718.25;;;8.45;99.42
19624;BME280;9959;49.798;9.928;2023-05-02T02:24:47;99707.94;;;8.48;98.72
19624;BME280;9959;49.798;9.928;2023-05-02T02:27:14;99713.78;;;8.59;98.50
19624;BME280;9959;49.798;9.928;2023-05-02T02:29:41;99720.00;;;8.59;99.36
19624;BME280;9959;49.798;9.928;2023-05-02T02:32:09;99721.59;;;8.54;100.00
19624;BME280;9959;49.798;9.928;2023-05-02T02:34:36;99719.91;;;8.46;100.00
19624;BME280;9959;49.798;9.928;2023-05-02T02:37:19;99731.50;;;8.46;99.88
19624;BME280;9959;49.798;9.928;2023-05-02T02:46:00;99740.56;;;8.45;100.00
19624;BME280;9959;49.798;9.928;2023-05-02T02:48:36;99735.59;;;8.49;100.00
19624;BME280;9959;49.798;9.928;2023-05-02T02:51:12;99739.03;;;8.64;98.92
19624;BME280;9959;49.798;9.928;2023-05-02T02:54:05;99741.38;;;8.74;97.49
19624;BME280;9959;49.798;9.928;2023-05-02T02:57:00;99741.63;;;8.86;96.41
19624;BME280;9959;49.798;9.928;2023-05-02T02:59:33;99751.53;;;8.85;95.82
19624;BME280;9959;49.798;9.928;2023-05-02T03:02:04;99753.84;;;8.88;95.68
19624;BME280;9959;49.798;9.928;2023-05-02T03:04:40;99755.31;;;8.91;95.58
19624;BME280;9959;49.798;9.928;2023-05-02T03:07:09;99759.50;;;9.00;94.64
19624;BME280;9959;49.798;9.928;2023-05-02T03:09:43;99756.19;;;9.04;94.59
19624;BME280;9959;49.798;9.928;2023-05-02T03:12:10;99749.88;;;9.19;93.54
19624;BME280;9959;49.798;9.928;2023-05-02T03:14:37;99755.47;;;9.24;93.64
19624;BME280;9959;49.798;9.928;2023-05-02T03:17:05;99768.72;;;9.32;93.03
19624;BME280;9959;49.798;9.928;2023-05-02T03:19:33;99762.50;;;9.25;93.36
19624;BME280;9959;49.798;9.928;2023-05-02T03:22:00;99767.50;;;9.28;93.06
19624;BME280;9959;49.798;9.928;2023-05-02T03:24:28;99770.81;;;9.30;92.68
19624;BME280;9959;49.798;9.928;2023-05-02T03:26:56;99768.75;;;9.38;91.84
19624;BME280;9959;49.798;9.928;2023-05-02T03:29:25;99777.44;;;9.40;91.94
19624;BME280;9959;49.798;9.928;2023-05-02T03:31:52;99776.22;;;9.43;91.75
19624;BME280;9959;49.798;9.928;2023-05-02T03:34:18;99774.38;;;9.50;91.70
19624;BME280;9959;49.798;9.928;2023-05-02T03:36:47;99777.47;;;9.47;91.92
19624;BME280;9959;49.798;9.928;2023-05-02T03:39:14;99781.44;;;9.58;91.75
19624;BME280;9959;49.798;9.928;2023-05-02T03:41:41;99776.84;;;9.45;92.40
19624;BME280;9959;49.798;9.928;2023-05-02T03:44:09;99778.34;;;9.54;91.34
19624;BME280;9959;49.798;9.928;2023-05-02T03:46:36;99778.94;;;9.49;91.67
19624;BME280;9959;49.798;9.928;2023-05-02T03:49:03;99777.47;;;9.47;91.75
19624;BME280;9959;49.798;9.928;2023-05-02T03:51:30;99777.88;;;9.44;91.84
19624;BME280;9959;49.798;9.928;2023-05-02T03:54:00;99776.22;;;9.43;92.38
19624;BME280;9959;49.798;9.928;2023-05-02T03:56:28;99781.63;;;9.49;92.36
19624;BME280;9959;49.798;9.928;2023-05-02T03:58:55;99782.03;;;9.46;91.87
19624;BME280;9959;49.798;9.928;2023-05-02T04:01:22;99786.56;;;9.46;92.64
19624;BME280;9959;49.798;9.928;2023-05-02T04:03:51;99793.00;;;9.58;91.69
19624;BME280;9959;49.798;9.928;2023-05-02T04:06:18;99798.81;;;9.55;91.92
19624;BME280;9959;49.798;9.928;2023-05-02T04:08:45;99795.09;;;9.56;92.02
19624;BME280;9959;49.798;9.928;2023-05-02T04:11:12;99795.31;;;9.61;91.99
19624;BME280;9959;49.798;9.928;2023-05-02T04:13:39;99800.50;;;9.69;91.47
19624;BME280;9959;49.798;9.928;2023-05-02T04:16:06;99797.03;;;9.75;91.33
19624;BME280;9959;49.798;9.928;2023-05-02T04:18:33;99808.19;;;9.72;91.58
19624;BME280;9959;49.798;9.928;2023-05-02T04:20:59;99807.56;;;9.70;91.43
19624;BME280;9959;49.798;9.928;2023-05-02T04:23:26;99810.66;;;9.74;91.46
19624;BME280;9959;49.798;9.928;2023-05-02T04:25:54;99808.41;;;9.77;91.42
19624;BME280;9959;49.798;9.928;2023-05-02T04:28:21;99819.56;;;9.74;91.70
19624;BME280;9959;49.798;9.928;2023-05-02T04:30:48;99821.47;;;9.87;91.08
19624;BME280;9959;49.798;9.928;2023-05-02T04:33:16;99828.91;;;9.85;90.86
19624;BME280;9959;49.798;9.928;2023-05-02T04:35:44;99830.19;;;9.96;90.74
19624;BME280;9959;49.798;9.928;2023-05-02T04:38:11;99835.97;;;9.93;90.86
19624;BME280;9959;49.798;9.928;2023-05-02T04:40:38;99839.50;;;10.00;90.67
19624;BME280;9959;49.798;9.928;2023-05-02T04:43:05;99837.03;;;10.05;90.54
19624;BME280;9959;49.798;9.928;2023-05-02T04:45:34;99845.34;;;10.10;90.20
19624;BME280;9959;49.798;9.928;2023-05-02T04:48:02;99850.09;;;10.08;90.53
19624;BME280;9959;49.798;9.928;2023-05-02T04:50:29;99857.41;;;10.21;89.54
19624;BME280;9959;49.798;9.928;2023-05-02T04:52:57;99855.53;;;10.21;90.24
19624;BME280;9959;49.798;9.928;2023-05-02T04:55:25;99868.38;;;10.19;90.38
19624;BME280;9959;49.798;9.928;2023-05-02T04:57:51;99865.91;;;10.24;89.96
19624;BME280;9959;49.798;9.928;2023-05-02T05:00:18;99872.47;;;10.15;91.67
19624;BME280;9959;49.798;9.928;2023-05-02T05:02:45;99881.25;;;10.30;90.62
19624;BME280;9959;49.798;9.928;2023-05-02T05:05:12;99880.44;;;10.36;89.68
19624;BME280;9959;49.798;9.928;2023-05-02T05:07:39;99892.88;;;10.37;89.47
19624;BME280;9959;49.798;9.928;2023-05-02T05:10:06;99898.25;;;10.50;88.64
19624;BME280;9959;49.798;9.928;2023-05-02T05:12:33;99896.63;;;10.56;88.39
19624;BME280;9959;49.798;9.928;2023-05-02T05:15:00;99904.88;;;10.48;88.77
19624;BME280;9959;49.798;9.928;2023-05-02T05:17:27;99901.56;;;10.52;88.63
19624;BME280;9959;49.798;9.928;2023-05-02T05:19:54;99901.16;;;10.56;88.60
19624;BME280;9959;49.798;9.928;2023-05-02T05:22:21;99906.56;;;10.56;88.51
19624;BME280;9959;49.798;9.928;2023-05-02T05:24:54;99904.09;;;10.61;88.04
19624;BME280;9959;49.798;9.928;2023-05-02T05:27:21;99916.72;;;10.67;88.01
19624;BME280;9959;49.798;9.928;2023-05-02T05:29:48;99913.59;;;10.57;88.71
19624;BME280;9959;49.798;9.928;2023-05-02T05:32:14;99919.84;;;10.64;88.51
19624;BME280;9959;49.798;9.928;2023-05-02T05:34:41;99918.19;;;10.63;88.55
19624;BME280;9959;49.798;9.928;2023-05-02T05:37:08;99913.00;;;10.61;88.85
19624;BME280;9959;49.798;9.928;2023-05-02T05:39:35;99919.84;;;10.64;88.48
19624;BME280;9959;49.798;9.928;2023-05-02T05:42:02;99918.59;;;10.73;88.45
19624;BME280;9959;49.798;9.928;2023-05-02T05:44:29;99921.91;;;10.75;88.02
19624;BME280;9959;49.798;9.928;2023-05-02T05:46:57;99930.19;;;10.67;88.71
19624;BME280;9959;49.798;9.928;2023-05-02T05:49:24;99936.00;;;10.77;88.38
19624;BME280;9959;49.798;9.928;2023-05-02T05:51:51;99941.00;;;10.80;88.17
19624;BME280;9959;49.798;9.928;2023-05-02T05:54:17;99933.94;;;10.85;88.16
19624;BME280;9959;49.798;9.928;2023-05-02T05:56:44;99937.06;;;10.89;88.05
19624;BME280;9959;49.798;9.928;2023-05-02T05:59:11;99937.25;;;11.01;86.99
19624;BME280;9959;49.798;9.928;2023-05-02T06:01:38;99945.75;;;11.04;87.28
19624;BME280;9959;49.798;9.928;2023-05-02T06:04:06;99950.53;;;11.02;87.60
19624;BME280;9959;49.798;9.928;2023-05-02T06:06:33;99947.63;;;11.24;86.60
19624;BME280;9959;49.798;9.928;2023-05-02T06:09:00;99954.66;;;11.25;86.74
19624;BME280;9959;49.798;9.928;2023-05-02T06:11:27;99959.03;;;11.12;87.33
19624;BME280;9959;49.798;9.928;2023-05-02T06:13:54;99963.78;;;11.24;87.18
19624;BME280;9959;49.798;9.928;2023-05-02T06:16:21;99962.34;;;11.28;86.81
19624;BME280;9959;49.798;9.928;2023-05-02T06:18:49;99970.03;;;11.24;86.89
19624;BME280;9959;49.798;9.928;2023-05-02T06:21:18;99972.31;;;11.34;86.40
19624;BME280;9959;49.798;9.928;2023-05-02T06:23:45;99972.50;;;11.39;86.01
19624;BME280;9959;49.798;9.928;2023-05-02T06:26:12;99982.06;;;11.48;85.51
19624;BME280;9959;49.798;9.928;2023-05-02T06:28:39;99988.28;;;11.42;85.47
19624;BME280;9959;49.798;9.928;2023-05-02T06:31:06;99983.91;;;11.54;84.64
19624;BME280;9959;49.798;9.928;2023-05-02T06:33:33;99995.31;;;11.63;84.23
19624;BME280;9959;49.798;9.928;2023-05-02T06:36:00;99994.88;;;11.85;83.59
19624;BME280;9959;49.798;9.928;2023-05-02T06:38:27;100004.22;;;11.90;83.76
19624;BME280;9959;49.798;9.928;2023-05-02T06:40:54;100009.34;;;12.04;83.01
19624;BME280;9959;49.798;9.928;2023-05-02T06:43:21;100006.41;;;12.19;82.64
19624;BME280;9959;49.798;9.928;2023-05-02T06:45:51;100006.03;;;12.09;83.13
19624;BME280;9959;49.798;9.928;2023-05-02T06:48:18;100015.06;;;12.34;81.34
19624;BME280;9959;49.798;9.928;2023-05-02T06:50:45;100004.31;;;12.21;82.39
19624;BME280;9959;49.798;9.928;2023-05-02T06:53:12;100016.50;;;12.43;81.28
19624;BME280;9959;49.798;9.928;2023-05-02T06:55:39;100019.38;;;12.48;80.64
19624;BME280;9959;49.798;9.928;2023-05-02T06:58:06;100020.53;;;12.28;81.24
19624;BME280;9959;49.798;9.928;2023-05-02T07:00:33;100011.94;;;12.82;79.33
19624;BME280;9959;49.798;9.928;2023-05-02T07:02:59;100021.56;;;12.65;79.28
19624;BME280;9959;49.798;9.928;2023-05-02T07:05:28;100024.91;;;12.98;78.10
19624;BME280;9959;49.798;9.928;2023-05-02T07:07:55;100029.41;;;12.79;78.96
19624;BME280;9959;49.798;9.928;2023-05-02T07:10:22;100029.28;;;12.99;78.20
19624;BME280;9959;49.798;9.928;2023-05-02T07:12:48;100027.59;;;13.05;78.29
19624;BME280;9959;49.798;9.928;2023-05-02T07:15:15;100026.25;;;13.14;77.93
19624;BME280;9959;49.798;9.928;2023-05-02T07:17:43;100025.19;;;13.71;75.42
19624;BME280;9959;49.798;9.928;2023-05-02T07:20:10;100039.28;;;13.55;76.20
19624;BME280;9959;49.798;9.928;2023-05-02T07:22:37;100026.19;;;13.52;75.88
19624;BME280;9959;49.798;9.928;2023-05-02T07:25:05;100029.25;;;13.62;75.74
19624;BME280;9959;49.798;9.928;2023-05-02T07:27:31;100031.19;;;13.55;76.05
19624;BME280;9959;49.798;9.928;2023-05-02T07:29:58;100029.28;;;13.55;76.18
19624;BME280;9959;49.798;9.928;2023-05-02T07:32:25;100034.81;;;13.42;76.28
19624;BME280;9959;49.798;9.928;2023-05-02T07:34:53;100036.19;;;13.76;74.66
19624;BME280;9959;49.798;9.928;2023-05-02T07:37:20;100029.53;;;13.72;74.61
19624;BME280;9959;49.798;9.928;2023-05-02T07:39:47;100032.19;;;13.79;74.03
19624;BME280;9959;49.798;9.928;2023-05-02T07:42:14;100040.44;;;14.09;72.82
19624;BME280;9959;49.798;9.928;2023-05-02T07:44:41;100035.00;;;14.27;72.18
19624;BME280;9959;49.798;9.928;2023-05-02T07:47:08;100039.16;;;13.68;73.84
19624;BME280;9959;49.798;9.928;2023-05-02T07:49:35;100044.22;;;13.40;75.20
19624;BME280;9959;49.798;9.928;2023-05-02T07:52:03;100044.59;;;13.43;75.47
19624;BME280;9959;49.798;9.928;2023-05-02T07:54:29;100042.88;;;13.74;74.17
19624;BME280;9959;49.798;9.928;2023-05-02T07:56:56;100057.63;;;13.53;75.08
19624;BME280;9959;49.798;9.928;2023-05-02T07:59:29;100045.78;;;13.72;74.03
19624;BME280;9959;49.798;9.928;2023-05-02T08:01:57;100045.59;;;13.49;74.04
19624;BME280;9959;49.798;9.928;2023-05-02T08:04:24;100049.00;;;13.87;72.85
19624;BME280;9959;49.798;9.928;2023-05-02T08:06:51;100050.22;;;14.28;70.51
19624;BME280;9959;49.798;9.928;2023-05-02T08:09:18;100048.56;;;14.64;67.99
19624;BME280;9959;49.798;9.928;2023-05-02T08:11:45;100056.28;;;14.78;67.65
19624;BME280;9959;49.798;9.928;2023-05-02T08:14:13;100050.78;;;15.68;63.61
19624;BME280;9959;49.798;9.928;2023-05-02T08:16:41;100056.22;;;15.68;63.21
19624;BME280;9959;49.798;9.928;2023-05-02T08:19:11;100051.63;;;16.04;61.78
19624;BME280;9959;49.798;9.928;2023-05-02T08:21:38;100056.53;;;15.60;62.76
19624;BME280;9959;49.798;9.928;2023-05-02T08:24:05;100060.56;;;16.28;61.28
19624;BME280;9959;49.798;9.928;2023-05-02T08:26:32;100063.66;;;16.71;58.86
19624;BME280;9959;49.798;9.928;2023-05-02T08:28:59;100050.06;;;17.45;56.51
19624;BME280;9959;49.798;9.928;2023-05-02T08:31:26;100060.59;;;16.96;57.37
19624;BME280;9959;49.798;9.928;2023-05-02T08:33:52;100060.09;;;17.27;56.97
19624;BME280;9959;49.798;9.928;2023-05-02T08:36:19;100058.94;;;17.23;57.25
19624;BME280;9959;49.798;9.928;2023-05-02T08:38:46;100067.56;;;17.49;55.45
19624;BME280;9959;49.798;9.928;2023-05-02T08:41:15;100062.72;;;18.01;53.58
19624;BME280;9959;49.798;9.928;2023-05-02T08:43:45;100068.34;;;17.78;53.78
19624;BME280;9959;49.798;9.928;2023-05-02T08:46:14;100066.56;;;17.55;53.38
19624;BME280;9959;49.798;9.928;2023-05-02T08:48:44;100069.88;;;17.57;54.41
19624;BME280;9959;49.798;9.928;2023-05-02T08:51:13;100058.09;;;18.84;50.74
19624;BME280;9959;49.798;9.928;2023-05-02T08:53:41;100065.88;;;18.32;51.89
19624;BME280;9959;49.798;9.928;2023-05-02T08:56:09;100065.41;;;19.05;49.64
19624;BME280;9959;49.798;9.928;2023-05-02T08:58:38;100070.28;;;18.16;50.85
19624;BME280;9959;49.798;9.928;2023-05-02T09:01:14;100072.25;;;18.42;51.31
19624;BME280;9959;49.798;9.928;2023-05-02T09:03:43;100078.03;;;18.84;50.58
19624;BME280;9959;49.798;9.928;2023-05-02T09:06:20;100080.53;;;18.91;50.36
19624;BME280;9959;49.798;9.928;2023-05-02T09:08:50;100087.03;;;18.08;51.87
19624;BME280;9959;49.798;9.928;2023-05-02T09:11:20;100082.97;;;18.66;50.97
19624;BME280;9959;49.798;9.928;2023-05-02T09:13:49;100082.50;;;18.96;49.54
19624;BME280;9959;49.798;9.928;2023-05-02T09:16:22;100090.66;;;18.30;50.04
19624;BME280;9959;49.798;9.928;2023-05-02T09:18:57;100086.59;;;17.77;51.45
19624;BME280;9959;49.798;9.928;2023-05-02T09:21:35;100087.88;;;17.58;52.11
19624;BME280;9959;49.798;9.928;2023-05-02T09:24:14;100088.69;;;18.25;50.73
19624;BME280;9959;49.798;9.928;2023-05-02T09:26:55;100090.25;;;19.04;48.67
19624;BME280;9959;49.798;9.928;2023-05-02T09:29:22;100100.91;;;18.62;49.39
19624;BME280;9959;49.798;9.928;2023-05-02T09:31:49;100099.44;;;17.48;53.35
19624;BME280;9959;49.798;9.928;2023-05-02T09:34:22;100099.31;;;17.88;51.85
19624;BME280;9959;49.798;9.928;2023-05-02T09:36:50;100094.09;;;18.42;47.89
19624;BME280;9959;49.798;9.928;2023-05-02T09:39:24;100096.25;;;18.40;48.03
19624;BME280;9959;49.798;9.928;2023-05-02T09:41:52;100094.31;;;18.19;48.00
19624;BME280;9959;49.798;9.928;2023-05-02T09:44:24;100104.47;;;17.56;49.34
19624;BME280;9959;49.798;9.928;2023-05-02T09:46:53;100097.47;;;18.11;47.45
19624;BME280;9959;49.798;9.928;2023-05-02T09:49:43;100092.72;;;19.59;43.87
19624;BME280;9959;49.798;9.928;2023-05-02T09:52:15;100097.06;;;19.28;44.78
19624;BME280;9959;49.798;9.928;2023-05-02T09:54:42;100103.19;;;18.48;46.12
19624;BME280;9959;49.798;9.928;2023-05-02T09:57:09;100097.41;;;18.88;44.56
19624;BME280;9959;49.798;9.928;2023-05-02T09:59:38;100091.25;;;18.54;46.12
19624;BME280;9959;49.798;9.928;2023-05-02T10:02:06;100098.25;;;18.88;46.75
19624;BME280;9959;49.798;9.928;2023-05-02T10:04:35;100103.25;;;17.81;49.26
19624;BME280;9959;49.798;9.928;2023-05-02T10:07:02;100099.78;;;17.85;49.13
19624;BME280;9959;49.798;9.928;2023-05-02T10:09:29;100118.06;;;16.83;51.64
19624;BME280;9959;49.798;9.928;2023-05-02T10:12:01;100118.34;;;17.26;50.99
19624;BME280;9959;49.798;9.928;2023-05-02T10:14:38;100118.16;;;17.45;50.94
19624;BME280;9959;49.798;9.928;2023-05-02T10:17:11;100116.19;;;17.12;51.35
19624;BME280;9959;49.798;9.928;2023-05-02T10:20:22;100124.97;;;17.31;50.43
19624;BME280;9959;49.798;9.928;2023-05-02T10:22:30;100119.97;;;16.71;52.20
19624;BME280;9959;49.798;9.928;2023-05-02T10:24:58;100123.28;;;16.73;51.47
19624;BME280;9959;49.798;9.928;2023-05-02T10:27:28;100125.47;;;16.24;52.99
19624;BME280;9959;49.798;9.928;2023-05-02T10:29:57;100124.25;;;16.43;53.51
19624;BME280;9959;49.798;9.928;2023-05-02T10:32:27;100130.88;;;16.47;53.81
19624;BME280;9959;49.798;9.928;2023-05-02T10:35:02;100128.50;;;16.74;53.19
19624;BME280;9959;49.798;9.928;2023-05-02T10:37:31;100131.38;;;16.21;53.39
19624;BME280;9959;49.798;9.928;2023-05-02T10:40:02;100139.16;;;17.04;50.57
19624;BME280;9959;49.798;9.928;2023-05-02T10:42:29;100123.38;;;17.63;49.85
19624;BME280;9959;49.798;9.928;2023-05-02T10:44:58;100122.63;;;18.73;47.16
19624;BME280;9959;49.798;9.928;2023-05-02T10:47:26;100128.41;;;18.77;47.37
19624;BME280;9959;49.798;9.928;2023-05-02T10:49:58;100117.75;;;20.10;45.31
19624;BME280;9959;49.798;9.928;2023-05-02T10:52:30;100126.00;;;19.83;45.60
19624;BME280;9959;49.798;9.928;2023-05-02T10:55:18;100114.09;;;19.94;46.12
19624;BME280;9959;49.798;9.928;2023-05-02T11:00:29;100123.03;;;18.43;48.90
19624;BME280;9959;49.798;9.928;2023-05-02T11:02:56;100120.53;;;19.02;48.58
19624;BME280;9959;49.798;9.928;2023-05-02T11:05:24;100112.88;;;20.17;44.68
19624;BME280;9959;49.798;9.928;2023-05-02T11:10:48;100111.41;;;18.70;47.29
19624;BME280;9959;49.798;9.928;2023-05-02T11:13:15;100110.84;;;19.16;45.24
19624;BME280;9959;49.798;9.928;2023-05-02T11:18:12;100108.47;;;20.58;42.71
19624;BME280;9959;49.798;9.928;2023-05-02T11:20:43;100103.03;;;19.52;43.02
19624;BME280;9959;49.798;9.928;2023-05-02T11:25:42;100106.22;;;21.12;40.03
19624;BME280;9959;49.798;9.928;2023-05-02T11:31:05;100101.38;;;20.62;40.60
19624;BME280;9959;49.798;9.928;2023-05-02T11:33:32;100100.84;;;20.65;40.29
19624;BME280;9959;49.798;9.928;2023-05-02T11:35:59;100098.66;;;20.67;39.87
19624;BME280;9959;49.798;9.928;2023-05-02T11:38:35;100095.00;;;23.20;36.29
19624;BME280;9959;49.798;9.928;2023-05-02T11:41:02;100100.84;;;21.53;39.06
19624;BME280;9959;49.798;9.928;2023-05-02T11:43:30;100095.09;;;22.15;37.80
19624;BME280;9959;49.798;9.928;2023-05-02T11:45:58;100097.28;;;21.73;38.59
19624;BME280;9959;49.798;9.928;2023-05-02T11:48:26;100102.72;;;19.21;44.02
19624;BME280;9959;49.798;9.928;2023-05-02T11:50:58;100098.50;;;19.36;43.67
19624;BME280;9959;49.798;9.928;2023-05-02T11:53:29;100097.47;;;19.42;44.14
19624;BME280;9959;49.798;9.928;2023-05-02T11:56:03;100096.66;;;19.41;43.83
19624;BME280;9959;49.798;9.928;2023-05-02T11:58:31;100107.75;;;20.83;40.85
19624;BME280;9959;49.798;9.928;2023-05-02T12:01:12;100099.75;;;21.94;38.43
19624;BME280;9959;49.798;9.928;2023-05-02T12:03:40;100101.53;;;20.03;40.28
19624;BME280;9959;49.798;9.928;2023-05-02T12:06:15;100109.00;;;20.13;41.52
19624;BME280;9959;49.798;9.928;2023-05-02T12:08:45;100111.31;;;20.78;40.67
19624;BME280;9959;49.798;9.928;2023-05-02T12:11:13;100112.72;;;18.89;45.41
19624;BME280;9959;49.798;9.928;2023-05-02T12:13:45;100111.03;;;19.32;43.85
19624;BME280;9959;49.798;9.928;2023-05-02T12:16:13;100111.63;;;18.90;44.74
19624;BME280;9959;49.798;9.928;2023-05-02T12:18:41;100114.34;;;18.85;45.00
19624;BME280;9959;49.798;9.928;2023-05-02T12:21:08;100107.75;;;19.88;42.32
19624;BME280;9959;49.798;9.928;2023-05-02T12:23:35;100112.53;;;21.18;39.04
19624;BME280;9959;49.798;9.928;2023-05-02T12:26:19;100113.50;;;20.76;40.18
19624;BME280;9959;49.798;9.928;2023-05-02T12:28:49;100112.66;;;19.33;43.30
19624;BME280;9959;49.798;9.928;2023-05-02T12:31:16;100108.13;;;19.16;43.09
19624;BME280;9959;49.798;9.928;2023-05-02T12:33:45;100102.56;;;19.92;42.45
19624;BME280;9959;49.798;9.928;2023-05-02T12:36:13;100103.06;;;20.26;41.46
19624;BME280;9959;49.798;9.928;2023-05-02T12:38:47;100106.03;;;21.39;38.97
19624;BME280;9959;49.798;9.928;2023-05-02T12:41:14;100109.22;;;20.43;40.23
19624;BME280;9959;49.798;9.928;2023-05-02T12:43:48;100113.09;;;20.47;40.19
19624;BME280;9959;49.798;9.928;2023-05-02T12:46:15;100112.88;;;21.26;38.18
19624;BME280;9959;49.798;9.928;2023-05-02T12:48:42;100112.22;;;22.87;34.83
19624;BME280;9959;49.798;9.928;2023-05-02T12:51:22;100114.94;;;20.94;37.87
19624;BME280;9959;49.798;9.928;2023-05-02T12:53:50;100113.91;;;20.11;40.01
19624;BME280;9959;49.798;9.928;2023-05-02T12:56:17;100123.47;;;20.08;40.60
19624;BME280;9959;49.798;9.928;2023-05-02T12:58:45;100115.94;;;19.88;40.77
19624;BME280;9959;49.798;9.928;2023-05-02T13:01:13;100116.94;;;19.23;41.63
19624;BME280;9959;49.798;9.928;2023-05-02T13:03:42;100126.88;;;19.08;42.66
19624;BME280;9959;49.798;9.928;2023-05-02T13:06:09;100115.22;;;19.44;41.60
19624;BME280;9959;49.798;9.928;2023-05-02T13:08:36;100121.31;;;19.24;43.14
19624;BME280;9959;49.798;9.928;2023-05-02T13:11:03;100119.88;;;19.44;42.48
19624;BME280;9959;49.798;9.928;2023-05-02T13:13:30;100118.94;;;19.55;42.78
19624;BME280;9959;49.798;9.928;2023-05-02T13:15:58;100128.59;;;20.89;39.92
19624;BME280;9959;49.798;9.928;2023-05-02T13:18:25;100122.47;;;21.29;38.98
19624;BME280;9959;49.798;9.928;2023-05-02T13:20:53;100114.53;;;21.48;37.66
19624;BME280;9959;49.798;9.928;2023-05-02T13:23:21;100129.09;;;22.24;35.33
19624;BME280;9959;49.798;9.928;2023-05-02T13:25:47;100122.09;;;21.10;38.32
19624;BME280;9959;49.798;9.928;2023-05-02T13:28:14;100108.19;;;20.54;38.07
19624;BME280;9959;49.798;9.928;2023-05-02T13:30:41;100119.31;;;20.95;37.32
19624;BME280;9959;49.798;9.928;2023-05-02T13:33:08;100106.34;;;20.28;38.92
19624;BME280;9959;49.798;9.928;2023-05-02T13:35:35;100115.06;;;21.24;36.56
19624;BME280;9959;49.798;9.928;2023-05-02T13:38:02;100110.16;;;21.92;34.71
19624;BME280;9959;49.798;9.928;2023-05-02T13:40:29;100109.34;;;22.22;34.34
19624;BME280;9959;49.798;9.928;2023-05-02T13:42:56;100108.03;;;20.76;36.73